Time;durP1;ratioP1;P1;durP2;ratioP2;P2;SDS_P1;SDS_P2;PMS_P1;PMS_P2;Temp;Humidity;BMP_temperature;BMP_pressure;BME280_temperature;BME280_humidity;BME280_pressure;Samples;Min_cycle;Max_cycle;Signal;HPM_P1;HPM_P2
2022/12/21 00:01:40;;;;;;;11.43;4.68;;;;;;;;;;5050956;28;20076;-78
2022/12/21 00:04:17;;;;;;;11.15;4.45;;;;;;;;;;5050340;28;20045;-80
2022/12/21 00:06:43;;;;;;;10.20;4.72;;;;;;;;;;5068466;28;20049;-79
2022/12/21 00:09:11;;;;;;;9.93;4.30;;;;;;;;;;5082740;28;20040;-80
2022/12/21 00:11:38;;;;;;;9.60;4.10;;;;;;;;;;5069751;28;20335;-79
2022/12/21 00:14:08;;;;;;;13.30;4.68;;;;;;;;;;5073382;28;20068;-79
2022/12/21 00:16:36;;;;;;;10.98;5.07;;;;;;;;;;5089762;28;20097;-79
2022/12/21 00:19:03;;;;;;;11.90;4.93;;;;;;;;;;5093784;28;20060;-79
2022/12/21 00:21:30;;;;;;;13.48;5.38;;;;;;;;;;5077223;28;20048;-79
2022/12/21 00:24:00;;;;;;;12.68;5.05;;;;;;;;;;5094351;28;20044;-80
2022/12/21 00:26:28;;;;;;;14.98;5.03;;;;;;;;;;5094087;28;20040;-80
2022/12/21 00:28:55;;;;;;;11.95;4.72;;;;;;;;;;5095139;28;20109;-80
2022/12/21 00:31:26;;;;;;;15.32;5.20;;;;;;;;;;5094352;28;20147;-80
2022/12/21 00:33:56;;;;;;;11.82;5.40;;;;;;;;;;5094681;28;20125;-81
2022/12/21 00:36:23;;;;;;;10.85;5.32;;;;;;;;;;5095538;28;20048;-80
2022/12/21 00:38:50;;;;;;;11.93;5.63;;;;;;;;;;5078898;28;20047;-81
2022/12/21 00:41:20;;;;;;;12.52;5.47;;;;;;;;;;5095689;28;20056;-79
2022/12/21 00:43:47;;;;;;;15.20;5.05;;;;;;;;;;5095298;28;20059;-80
2022/12/21 00:46:14;;;;;;;17.48;6.03;;;;;;;;;;5096600;28;20134;-82
2022/12/21 00:48:41;;;;;;;14.43;5.53;;;;;;;;;;5100051;28;20040;-80
2022/12/21 00:51:08;;;;;;;14.00;5.97;;;;;;;;;;5102567;28;20063;-81
2022/12/21 00:53:35;;;;;;;13.10;5.80;;;;;;;;;;5077103;28;20452;-81
2022/12/21 00:56:02;;;;;;;12.57;6.00;;;;;;;;;;5093956;28;20063;-81
2022/12/21 00:58:29;;;;;;;17.13;6.80;;;;;;;;;;5094482;28;20142;-81
2022/12/21 01:00:56;;;;;;;15.48;6.03;;;;;;;;;;5087433;28;20056;-81
2022/12/21 01:03:23;;;;;;;18.63;6.82;;;;;;;;;;5072608;28;20048;-81
2022/12/21 01:05:51;;;;;;;14.63;6.15;;;;;;;;;;5074471;28;20045;-81
2022/12/21 01:08:21;;;;;;;17.13;7.05;;;;;;;;;;5047600;28;20564;-81
2022/12/21 01:10:48;;;;;;;17.38;7.03;;;;;;;;;;5064044;28;20056;-80
2022/12/21 01:13:14;;;;;;;22.25;7.05;;;;;;;;;;5054129;28;20059;-80
2022/12/21 01:15:45;;;;;;;16.45;6.72;;;;;;;;;;5070417;28;20052;-79
2022/12/21 01:18:13;;;;;;;20.67;6.93;;;;;;;;;;5073863;28;20662;-80
2022/12/21 01:20:40;;;;;;;15.25;6.55;;;;;;;;;;5073794;28;20052;-80
2022/12/21 01:23:07;;;;;;;20.17;6.90;;;;;;;;;;5073958;28;20049;-80
2022/12/21 01:25:33;;;;;;;16.05;7.15;;;;;;;;;;5073731;28;20060;-80
2022/12/21 01:27:59;;;;;;;18.83;7.25;;;;;;;;;;5074741;28;20048;-80
2022/12/21 01:30:26;;;;;;;17.40;6.60;;;;;;;;;;5056783;28;20461;-80
2022/12/21 01:32:55;;;;;;;17.23;7.38;;;;;;;;;;5073891;28;20269;-81
2022/12/21 01:35:21;;;;;;;19.52;7.22;;;;;;;;;;5073135;28;20076;-81
2022/12/21 01:37:49;;;;;;;17.75;7.13;;;;;;;;;;5074977;28;20431;-81
2022/12/21 01:40:18;;;;;;;16.33;7.60;;;;;;;;;;5075451;28;20401;-81
2022/12/21 01:42:45;;;;;;;18.73;7.22;;;;;;;;;;5075260;28;20260;-79
2022/12/21 01:45:17;;;;;;;16.38;7.35;;;;;;;;;;5074233;28;20052;-80
2022/12/21 01:47:53;;;;;;;17.02;7.80;;;;;;;;;;5075172;28;20127;-80
2022/12/21 01:50:38;;;;;;;13.95;6.57;;;;;;;;;;5058015;28;20389;-79
2022/12/21 01:53:07;;;;;;;18.30;7.65;;;;;;;;;;5074509;28;20045;-81
2022/12/21 01:55:34;;;;;;;17.55;7.00;;;;;;;;;;5081965;28;20100;-80
2022/12/21 01:58:03;;;;;;;17.42;7.20;;;;;;;;;;5066417;28;20038;-81
2022/12/21 02:00:29;;;;;;;18.05;7.30;;;;;;;;;;5051575;28;20063;-81
2022/12/21 02:02:58;;;;;;;19.02;6.85;;;;;;;;;;5069286;28;20040;-80
2022/12/21 02:05:34;;;;;;;17.33;7.07;;;;;;;;;;5070068;28;20110;-80
2022/12/21 02:08:02;;;;;;;14.32;6.10;;;;;;;;;;5070720;28;20047;-80
2022/12/21 02:10:28;;;;;;;15.02;6.40;;;;;;;;;;5045286;28;20055;-80
2022/12/21 02:12:58;;;;;;;17.73;6.35;;;;;;;;;;5070892;28;20489;-80
2022/12/21 02:15:29;;;;;;;12.48;6.25;;;;;;;;;;5068071;28;20044;-80
2022/12/21 02:18:00;;;;;;;14.55;5.68;;;;;;;;;;5070858;28;20086;-81
2022/12/21 02:20:27;;;;;;;13.57;5.60;;;;;;;;;;5071121;28;20059;-80
2022/12/21 02:23:04;;;;;;;14.25;5.80;;;;;;;;;;5070402;28;20048;-80
2022/12/21 02:25:40;;;;;;;14.65;5.68;;;;;;;;;;5070364;28;20040;-79
2022/12/21 02:28:18;;;;;;;12.80;5.70;;;;;;;;;;5071447;28;20044;-81
2022/12/21 02:31:04;;;;;;;16.80;6.18;;;;;;;;;;5071679;28;20056;-81
2022/12/21 02:33:30;;;;;;;17.83;6.40;;;;;;;;;;5070904;28;20116;-81
2022/12/21 02:36:05;;;;;;;19.33;6.53;;;;;;;;;;5075116;28;20053;-81
2022/12/21 02:38:35;;;;;;;16.05;5.60;;;;;;;;;;5093369;28;20059;-80
2022/12/21 02:41:04;;;;;;;15.45;6.25;;;;;;;;;;5084864;28;20040;-80
2022/12/21 02:46:31;;;;;;;10.27;4.80;;;;;;;;;;5071130;28;20040;-80
2022/12/21 02:48:57;;;;;;;15.65;6.43;;;;;;;;;;5071027;28;20147;-79
2022/12/21 02:51:38;;;;;;;15.48;5.82;;;;;;;;;;5071828;28;20075;-80
2022/12/21 02:54:05;;;;;;;12.15;5.93;;;;;;;;;;5073199;28;20536;-80
2022/12/21 02:56:32;;;;;;;15.48;5.95;;;;;;;;;;5074895;28;20045;-80
2022/12/21 02:58:59;;;;;;;12.07;5.18;;;;;;;;;;5073849;28;20128;-79
2022/12/21 03:01:37;;;;;;;19.05;5.97;;;;;;;;;;5073089;28;20078;-79
2022/12/21 03:04:10;;;;;;;15.02;5.78;;;;;;;;;;5070478;28;20070;-79
2022/12/21 03:06:55;;;;;;;12.68;5.63;;;;;;;;;;5070487;28;20040;-79
2022/12/21 03:09:27;;;;;;;10.90;4.40;;;;;;;;;;5068793;28;20087;-79
2022/12/21 03:12:10;;;;;;;13.88;5.85;;;;;;;;;;5069500;28;20051;-79
2022/12/21 03:14:54;;;;;;;14.98;6.20;;;;;;;;;;5070883;28;20057;-79
2022/12/21 03:17:50;;;;;;;15.98;6.40;;;;;;;;;;5090100;28;20055;-79
2022/12/21 03:20:35;;;;;;;14.93;6.32;;;;;;;;;;5073197;28;20059;-79
2022/12/21 03:23:10;;;;;;;13.52;5.80;;;;;;;;;;5089986;28;20048;-80
2022/12/21 03:25:49;;;;;;;17.70;6.95;;;;;;;;;;5089974;28;20397;-80
2022/12/21 03:28:23;;;;;;;13.98;6.68;;;;;;;;;;5091227;28;20040;-80
2022/12/21 03:30:52;;;;;;;15.50;6.43;;;;;;;;;;5090495;28;20126;-80
2022/12/21 03:33:20;;;;;;;19.70;6.65;;;;;;;;;;5072079;28;20040;-82
2022/12/21 03:35:52;;;;;;;16.77;6.38;;;;;;;;;;5088549;28;20067;-79
2022/12/21 03:38:21;;;;;;;16.30;6.60;;;;;;;;;;5091798;28;20067;-80
2022/12/21 03:40:50;;;;;;;12.18;5.55;;;;;;;;;;5091112;28;20054;-80
2022/12/21 03:43:17;;;;;;;16.33;6.97;;;;;;;;;;5091124;28;20106;-80
2022/12/21 03:45:47;;;;;;;19.13;7.15;;;;;;;;;;5090712;28;20048;-82
2022/12/21 03:48:18;;;;;;;15.98;7.05;;;;;;;;;;5073200;28;20135;-80
2022/12/21 03:50:46;;;;;;;16.17;6.93;;;;;;;;;;5072102;28;20044;-80
2022/12/21 03:53:13;;;;;;;14.95;6.28;;;;;;;;;;5089890;28;20432;-81
2022/12/21 03:55:40;;;;;;;15.95;6.80;;;;;;;;;;5090454;28;20445;-81
2022/12/21 03:58:07;;;;;;;16.42;7.10;;;;;;;;;;5091078;28;20549;-81
2022/12/21 04:00:40;;;;;;;20.83;7.43;;;;;;;;;;5090372;28;20074;-81
2022/12/21 04:03:17;;;;;;;17.73;7.13;;;;;;;;;;5091885;28;20543;-81
2022/12/21 04:05:51;;;;;;;16.90;7.63;;;;;;;;;;5080254;28;20052;-81
2022/12/21 04:08:21;;;;;;;15.75;7.43;;;;;;;;;;5075124;28;20128;-81
2022/12/21 04:10:50;;;;;;;15.70;7.18;;;;;;;;;;5074117;28;20100;-80
2022/12/21 04:13:17;;;;;;;19.88;7.40;;;;;;;;;;5056198;28;20049;-81
2022/12/21 04:21:13;;;;;;;23.92;7.45;;;;;;;;;;5095421;28;20138;-81
2022/12/21 04:29:09;;;;;;;16.65;7.40;;;;;;;;;;5109454;28;20100;-82
2022/12/21 04:31:36;;;;;;;20.55;7.95;;;;;;;;;;5099953;28;20104;-80
2022/12/21 04:34:02;;;;;;;18.52;7.55;;;;;;;;;;5074573;28;20056;-81
2022/12/21 04:39:14;;;;;;;18.38;8.10;;;;;;;;;;5074222;28;20103;-80
2022/12/21 04:41:40;;;;;;;19.13;8.32;;;;;;;;;;5074220;28;20056;-79
2022/12/21 04:44:07;;;;;;;20.05;7.82;;;;;;;;;;5071046;28;20052;-80
2022/12/21 04:46:33;;;;;;;18.45;7.80;;;;;;;;;;5075339;28;20041;-80
2022/12/21 04:49:01;;;;;;;19.73;8.52;;;;;;;;;;5056412;28;20053;-80
2022/12/21 04:51:27;;;;;;;20.05;8.38;;;;;;;;;;5075373;28;20045;-80
2022/12/21 04:53:53;;;;;;;20.27;8.13;;;;;;;;;;5073099;28;20515;-79
2022/12/21 04:56:20;;;;;;;25.92;8.40;;;;;;;;;;5073015;28;20392;-80
2022/12/21 04:58:47;;;;;;;20.35;8.52;;;;;;;;;;5072989;28;20044;-79
2022/12/21 05:01:18;;;;;;;19.50;8.77;;;;;;;;;;5073135;28;20045;-80
2022/12/21 05:03:45;;;;;;;19.67;8.55;;;;;;;;;;5071535;28;20682;-80
2022/12/21 05:06:13;;;;;;;23.58;8.23;;;;;;;;;;5073040;28;20114;-80
2022/12/21 05:08:39;;;;;;;20.23;7.75;;;;;;;;;;5056231;28;20108;-79
2022/12/21 05:11:11;;;;;;;18.00;8.40;;;;;;;;;;5089629;28;20041;-80
2022/12/21 05:13:40;;;;;;;20.77;8.45;;;;;;;;;;5087678;28;20048;-79
2022/12/21 05:16:08;;;;;;;20.17;8.32;;;;;;;;;;5053819;28;20398;-80
2022/12/21 05:18:34;;;;;;;19.50;7.80;;;;;;;;;;5055677;28;20041;-80
2022/12/21 05:21:00;;;;;;;22.85;9.05;;;;;;;;;;5073693;28;20064;-81
2022/12/21 05:23:27;;;;;;;18.42;7.82;;;;;;;;;;5073944;28;20127;-80
2022/12/21 05:25:53;;;;;;;19.73;7.82;;;;;;;;;;5074601;28;20052;-79
2022/12/21 05:28:20;;;;;;;19.55;8.43;;;;;;;;;;5089197;28;20048;-80
2022/12/21 05:30:46;;;;;;;18.38;9.07;;;;;;;;;;5093018;28;20051;-80
2022/12/21 05:33:13;;;;;;;25.58;9.13;;;;;;;;;;5091889;28;20052;-80
2022/12/21 05:35:40;;;;;;;19.52;8.48;;;;;;;;;;5092305;28;20052;-80
2022/12/21 05:38:07;;;;;;;20.10;7.75;;;;;;;;;;5092987;28;20255;-78
2022/12/21 05:40:33;;;;;;;18.17;7.45;;;;;;;;;;5092514;28;20082;-81
2022/12/21 05:43:01;;;;;;;18.05;7.40;;;;;;;;;;5091638;28;20059;-81
2022/12/21 05:45:28;;;;;;;20.63;7.32;;;;;;;;;;5091996;28;20254;-80
2022/12/21 05:47:54;;;;;;;16.05;6.90;;;;;;;;;;5092654;28;20044;-80
2022/12/21 05:50:21;;;;;;;15.02;6.28;;;;;;;;;;5092431;28;20072;-80
2022/12/21 05:52:48;;;;;;;15.88;6.05;;;;;;;;;;5092393;28;20515;-80
2022/12/21 05:55:15;;;;;;;19.70;6.95;;;;;;;;;;5075543;28;20119;-82
2022/12/21 05:57:42;;;;;;;19.70;7.25;;;;;;;;;;5087684;28;20081;-81
2022/12/21 06:00:09;;;;;;;15.52;6.32;;;;;;;;;;5055376;28;20107;-81
2022/12/21 06:02:40;;;;;;;15.30;5.95;;;;;;;;;;5072676;28;20136;-80
2022/12/21 06:05:07;;;;;;;14.38;6.15;;;;;;;;;;5075363;28;20064;-81
2022/12/21 06:07:34;;;;;;;20.60;7.05;;;;;;;;;;5069032;28;20060;-80
2022/12/21 06:10:00;;;;;;;19.40;7.15;;;;;;;;;;5065489;28;20049;-81
2022/12/21 06:12:30;;;;;;;14.40;6.30;;;;;;;;;;5070530;28;20055;-81
2022/12/21 06:15:00;;;;;;;18.15;6.63;;;;;;;;;;5067699;28;20485;-80
2022/12/21 06:17:27;;;;;;;15.88;6.75;;;;;;;;;;5057018;28;20060;-80
2022/12/21 06:19:53;;;;;;;16.33;7.05;;;;;;;;;;5065972;28;20428;-79
2022/12/21 06:22:19;;;;;;;14.60;7.20;;;;;;;;;;5070390;28;20056;-79
2022/12/21 06:24:46;;;;;;;17.52;7.03;;;;;;;;;;5069877;28;20040;-79
2022/12/21 06:27:13;;;;;;;15.07;6.55;;;;;;;;;;5068897;28;20087;-79
2022/12/21 06:29:40;;;;;;;12.93;5.88;;;;;;;;;;5069679;28;20051;-78
2022/12/21 06:32:06;;;;;;;14.75;6.35;;;;;;;;;;5069801;28;20063;-80
2022/12/21 06:34:33;;;;;;;14.63;7.00;;;;;;;;;;5081286;28;20044;-79
2022/12/21 06:36:59;;;;;;;16.73;6.72;;;;;;;;;;5078392;28;20433;-81
2022/12/21 06:39:25;;;;;;;14.75;6.13;;;;;;;;;;5073730;28;20123;-81
2022/12/21 06:41:52;;;;;;;14.00;6.20;;;;;;;;;;5074797;28;20127;-80
2022/12/21 06:44:18;;;;;;;13.63;5.85;;;;;;;;;;5073846;28;20049;-81
2022/12/21 06:46:44;;;;;;;14.05;6.82;;;;;;;;;;5054470;28;20048;-81
2022/12/21 06:49:14;;;;;;;14.55;6.82;;;;;;;;;;5073468;28;20067;-80
2022/12/21 06:51:40;;;;;;;11.20;5.70;;;;;;;;;;5073440;28;20052;-81
2022/12/21 06:54:10;;;;;;;16.65;6.32;;;;;;;;;;5071869;28;20044;-80
2022/12/21 06:56:36;;;;;;;11.82;5.90;;;;;;;;;;5072254;28;20064;-79
2022/12/21 06:59:02;;;;;;;15.27;5.93;;;;;;;;;;5073080;28;20053;-80
2022/12/21 07:01:31;;;;;;;13.85;6.05;;;;;;;;;;5056262;28;20054;-80
2022/12/21 07:03:58;;;;;;;17.00;6.40;;;;;;;;;;5072668;28;20056;-80
2022/12/21 07:06:28;;;;;;;14.75;6.40;;;;;;;;;;5054416;28;20726;-80
2022/12/21 07:08:55;;;;;;;10.93;5.65;;;;;;;;;;5072715;28;20045;-81
2022/12/21 07:11:23;;;;;;;11.88;6.00;;;;;;;;;;5071808;28;20517;-82
2022/12/21 07:13:50;;;;;;;13.10;5.75;;;;;;;;;;5070178;28;20041;-81
2022/12/21 07:16:16;;;;;;;12.82;6.07;;;;;;;;;;5072022;28;20132;-81
2022/12/21 07:18:44;;;;;;;16.42;6.20;;;;;;;;;;5071063;28;20052;-80
2022/12/21 07:21:11;;;;;;;15.50;6.00;;;;;;;;;;5055185;28;20066;-80
2022/12/21 07:23:38;;;;;;;12.32;6.20;;;;;;;;;;5072251;28;20056;-81
2022/12/21 07:26:09;;;;;;;13.20;6.22;;;;;;;;;;5071484;28;20044;-80
2022/12/21 07:28:35;;;;;;;12.43;5.43;;;;;;;;;;5075115;28;20055;-81
2022/12/21 07:31:06;;;;;;;15.23;6.22;;;;;;;;;;5072601;28;20048;-81
2022/12/21 07:33:33;;;;;;;14.85;5.55;;;;;;;;;;5069956;28;20050;-80
2022/12/21 07:36:00;;;;;;;13.80;5.88;;;;;;;;;;5072859;28;20058;-79
2022/12/21 07:38:30;;;;;;;16.75;5.78;;;;;;;;;;5087454;28;20063;-79
2022/12/21 07:40:57;;;;;;;11.93;5.35;;;;;;;;;;5077508;28;20059;-80
2022/12/21 07:43:24;;;;;;;15.20;6.00;;;;;;;;;;5075280;28;20047;-80
2022/12/21 07:45:51;;;;;;;15.07;6.55;;;;;;;;;;5078458;28;20147;-80
2022/12/21 07:48:17;;;;;;;12.98;5.93;;;;;;;;;;5077247;28;20045;-81
2022/12/21 07:50:47;;;;;;;12.55;6.05;;;;;;;;;;5075998;28;20040;-80
2022/12/21 07:53:14;;;;;;;14.05;6.05;;;;;;;;;;5074778;28;20120;-80
2022/12/21 07:55:40;;;;;;;13.75;5.25;;;;;;;;;;5074620;28;20515;-80
2022/12/21 07:58:07;;;;;;;12.75;5.43;;;;;;;;;;5056218;28;20048;-81
2022/12/21 08:00:34;;;;;;;12.82;5.55;;;;;;;;;;5074807;28;20056;-81
2022/12/21 08:03:00;;;;;;;13.30;5.70;;;;;;;;;;5074650;28;20059;-81
2022/12/21 08:05:27;;;;;;;9.23;4.88;;;;;;;;;;5075710;28;20118;-81
2022/12/21 08:07:54;;;;;;;12.73;5.70;;;;;;;;;;5076539;28;20165;-81
2022/12/21 08:10:20;;;;;;;10.63;4.80;;;;;;;;;;5075148;28;20460;-78
2022/12/21 08:12:46;;;;;;;10.00;5.20;;;;;;;;;;5074448;28;20466;-81
2022/12/21 08:15:13;;;;;;;10.98;5.18;;;;;;;;;;5076058;28;20049;-79
2022/12/21 08:17:39;;;;;;;10.40;5.28;;;;;;;;;;5076075;28;20154;-83
2022/12/21 08:20:06;;;;;;;10.85;5.30;;;;;;;;;;5074642;28;20059;-79
2022/12/21 08:22:32;;;;;;;7.97;4.75;;;;;;;;;;5054369;28;20053;-79
2022/12/21 08:25:01;;;;;;;8.50;4.32;;;;;;;;;;5072972;28;20059;-81
2022/12/21 08:27:27;;;;;;;10.02;4.20;;;;;;;;;;5055042;28;20067;-80
2022/12/21 08:29:53;;;;;;;9.35;4.50;;;;;;;;;;5072526;28;20517;-79
2022/12/21 08:32:20;;;;;;;11.30;4.60;;;;;;;;;;5071552;28;20044;-79
2022/12/21 08:34:46;;;;;;;6.40;3.78;;;;;;;;;;5054704;28;20107;-78
2022/12/21 08:37:17;;;;;;;9.20;3.88;;;;;;;;;;5070605;28;20098;-81
2022/12/21 08:39:43;;;;;;;10.40;4.15;;;;;;;;;;5073002;28;20124;-81
2022/12/21 08:42:12;;;;;;;6.47;3.90;;;;;;;;;;5071269;28;20052;-81
2022/12/21 08:44:39;;;;;;;10.15;4.13;;;;;;;;;;5070050;28;20045;-80
2022/12/21 08:47:06;;;;;;;8.52;3.70;;;;;;;;;;5073168;28;20078;-80
2022/12/21 08:49:33;;;;;;;6.85;3.83;;;;;;;;;;5053371;28;20127;-80
2022/12/21 08:51:59;;;;;;;7.38;3.60;;;;;;;;;;5073385;28;20120;-80
2022/12/21 08:54:26;;;;;;;7.32;3.53;;;;;;;;;;5070472;28;20056;-81
2022/12/21 08:56:53;;;;;;;9.32;4.10;;;;;;;;;;5072684;28;20044;-79
2022/12/21 08:59:19;;;;;;;11.65;3.83;;;;;;;;;;5071788;28;20048;-80
2022/12/21 09:01:47;;;;;;;10.95;3.67;;;;;;;;;;5071069;28;20055;-78
2022/12/21 09:04:13;;;;;;;7.60;3.63;;;;;;;;;;5071262;28;20168;-80
2022/12/21 09:06:40;;;;;;;7.38;4.03;;;;;;;;;;5072223;28;20044;-80
2022/12/21 09:09:08;;;;;;;11.80;3.97;;;;;;;;;;5071569;28;20136;-79
2022/12/21 09:11:34;;;;;;;7.45;3.67;;;;;;;;;;5072487;28;20380;-80
2022/12/21 09:14:17;;;;;;;9.65;3.80;;;;;;;;;;5071015;28;20044;-79
2022/12/21 09:16:43;;;;;;;9.85;3.45;;;;;;;;;;5055358;28;20052;-80
2022/12/21 09:19:10;;;;;;;8.60;3.72;;;;;;;;;;5072737;28;20048;-80
2022/12/21 09:21:39;;;;;;;6.00;3.22;;;;;;;;;;5074768;28;20048;-78
2022/12/21 09:24:06;;;;;;;5.88;3.30;;;;;;;;;;5073438;28;20051;-79
2022/12/21 09:26:32;;;;;;;6.50;3.15;;;;;;;;;;5073665;28;20076;-80
2022/12/21 09:28:59;;;;;;;5.53;3.25;;;;;;;;;;5070508;28;20048;-79
2022/12/21 09:31:25;;;;;;;6.57;3.50;;;;;;;;;;5072093;28;20063;-79
2022/12/21 09:33:53;;;;;;;8.95;3.22;;;;;;;;;;5072790;28;20509;-81
2022/12/21 09:36:21;;;;;;;8.23;3.58;;;;;;;;;;5073204;28;20059;-81
2022/12/21 09:38:47;;;;;;;6.68;3.17;;;;;;;;;;5054550;28;20167;-80
2022/12/21 09:41:29;;;;;;;6.30;3.10;;;;;;;;;;5072108;28;20048;-80
2022/12/21 09:43:58;;;;;;;7.63;3.22;;;;;;;;;;5072245;28;20048;-81
2022/12/21 09:46:26;;;;;;;8.15;3.28;;;;;;;;;;5071796;28;20041;-79
2022/12/21 09:48:59;;;;;;;7.30;3.42;;;;;;;;;;5071208;28;20048;-79
2022/12/21 09:51:26;;;;;;;8.38;3.08;;;;;;;;;;5070164;28;20052;-79
2022/12/21 09:54:00;;;;;;;5.07;2.70;;;;;;;;;;5070579;28;20049;-79
2022/12/21 09:56:28;;;;;;;7.05;3.35;;;;;;;;;;5074587;28;20056;-80
2022/12/21 09:58:55;;;;;;;4.40;2.75;;;;;;;;;;5071156;28;20527;-80
2022/12/21 10:01:28;;;;;;;6.97;3.08;;;;;;;;;;5054009;28;20431;-78
2022/12/21 10:04:09;;;;;;;6.75;3.00;;;;;;;;;;5068514;28;20051;-80
2022/12/21 10:06:36;;;;;;;5.10;2.60;;;;;;;;;;5070117;28;20040;-80
2022/12/21 10:09:10;;;;;;;5.10;2.65;;;;;;;;;;5090929;28;20326;-79
2022/12/21 10:11:43;;;;;;;4.78;2.33;;;;;;;;;;5081387;28;20048;-78
2022/12/21 10:14:29;;;;;;;4.68;2.25;;;;;;;;;;5072174;28;20048;-80
2022/12/21 10:17:20;;;;;;;6.03;2.10;;;;;;;;;;5073450;28;20040;-81
2022/12/21 10:20:12;;;;;;;3.75;2.10;;;;;;;;;;5067278;28;20040;-77
2022/12/21 10:22:44;;;;;;;4.90;2.33;;;;;;;;;;5074863;28;20109;-79
2022/12/21 10:25:18;;;;;;;3.30;2.22;;;;;;;;;;5073965;28;20051;-78
2022/12/21 10:28:05;;;;;;;3.40;2.05;;;;;;;;;;5073469;28;20064;-79
2022/12/21 10:30:31;;;;;;;4.53;2.05;;;;;;;;;;5058187;28;20568;-79
2022/12/21 10:32:59;;;;;;;3.83;2.13;;;;;;;;;;5069893;28;20051;-78
2022/12/21 10:35:43;;;;;;;5.53;2.20;;;;;;;;;;5070525;28;20047;-79
2022/12/21 10:38:19;;;;;;;5.57;2.05;;;;;;;;;;5053201;28;20171;-79
2022/12/21 10:40:52;;;;;;;3.50;2.10;;;;;;;;;;5071166;28;20048;-79
2022/12/21 10:43:19;;;;;;;4.13;2.17;;;;;;;;;;5068363;28;20044;-79
2022/12/21 10:45:46;;;;;;;3.55;1.90;;;;;;;;;;5070908;28;20045;-78
2022/12/21 10:48:12;;;;;;;3.53;2.05;;;;;;;;;;5071943;28;20074;-78
2022/12/21 10:50:42;;;;;;;3.63;2.03;;;;;;;;;;5070201;28;20041;-77
2022/12/21 10:53:18;;;;;;;4.43;2.10;;;;;;;;;;5069422;28;20044;-78
2022/12/21 10:55:44;;;;;;;4.15;2.05;;;;;;;;;;5068975;28;20123;-77
2022/12/21 10:58:19;;;;;;;4.03;1.90;;;;;;;;;;5052393;28;20127;-79
2022/12/21 11:01:05;;;;;;;4.10;2.10;;;;;;;;;;5071108;28;20049;-79
2022/12/21 11:03:31;;;;;;;;;;;;;;;;;;5052351;28;20049;-79
2022/12/21 11:06:09;;;;;;;3.67;1.63;;;;;;;;;;5074305;28;19927;-78
2022/12/21 11:08:42;;;;;;;3.65;1.80;;;;;;;;;;5071890;28;20064;-78
2022/12/21 11:11:25;;;;;;;3.35;1.80;;;;;;;;;;5063368;28;20096;-79
2022/12/21 11:14:17;;;;;;;2.50;1.55;;;;;;;;;;5067857;28;20048;-77
2022/12/21 11:16:47;;;;;;;3.85;1.83;;;;;;;;;;5066490;28;20054;-78
2022/12/21 11:19:15;;;;;;;2.60;1.58;;;;;;;;;;5074396;28;20055;-78
2022/12/21 11:21:52;;;;;;;7.13;1.52;;;;;;;;;;5072698;28;20048;-79
2022/12/21 11:24:24;;;;;;;3.13;1.65;;;;;;;;;;5070336;28;20120;-78
2022/12/21 11:26:51;;;;;;;3.55;1.83;;;;;;;;;;5073796;28;20052;-78
2022/12/21 11:29:20;;;;;;;2.97;1.70;;;;;;;;;;5072422;28;20104;-79
2022/12/21 11:31:47;;;;;;;2.10;1.52;;;;;;;;;;5071269;28;20040;-79
2022/12/21 11:34:24;;;;;;;2.75;1.67;;;;;;;;;;5068142;28;20072;-78
2022/12/21 11:36:54;;;;;;;2.80;2.00;;;;;;;;;;5072808;28;20057;-79
2022/12/21 11:39:21;;;;;;;3.33;1.65;;;;;;;;;;5072097;28;20045;-79
2022/12/21 11:41:52;;;;;;;2.78;2.03;;;;;;;;;;5054105;28;20052;-78
2022/12/21 11:44:45;;;;;;;3.08;1.88;;;;;;;;;;5073865;28;20501;-78
2022/12/21 11:47:22;;;;;;;3.53;2.00;;;;;;;;;;5069726;28;20128;-78
2022/12/21 11:50:03;;;;;;;3.30;1.77;;;;;;;;;;5072621;28;20107;-79
2022/12/21 11:52:39;;;;;;;3.47;1.90;;;;;;;;;;5054649;28;20060;-79
2022/12/21 11:55:15;;;;;;;4.43;2.17;;;;;;;;;;5073408;28;20044;-78
2022/12/21 11:58:00;;;;;;;4.43;2.30;;;;;;;;;;5074288;28;20064;-79
2022/12/21 12:00:28;;;;;;;2.50;1.90;;;;;;;;;;5071653;28;20044;-78
2022/12/21 12:03:23;;;;;;;4.28;1.92;;;;;;;;;;5070337;28;20082;-77
2022/12/21 12:05:58;;;;;;;3.63;2.15;;;;;;;;;;5072099;28;20044;-79
2022/12/21 12:08:27;;;;;;;3.90;2.10;;;;;;;;;;5053606;28;20424;-78
2022/12/21 12:11:03;;;;;;;3.42;1.92;;;;;;;;;;5070726;28;20068;-77
2022/12/21 12:13:29;;;;;;;2.70;1.77;;;;;;;;;;5066612;28;20519;-77
2022/12/21 12:16:19;;;;;;;3.25;2.00;;;;;;;;;;5064362;28;20079;-78
2022/12/21 12:18:51;;;;;;;3.03;1.90;;;;;;;;;;5066562;28;20045;-78
2022/12/21 12:21:30;;;;;;;3.60;2.10;;;;;;;;;;5066915;28;20497;-78
2022/12/21 12:24:17;;;;;;;3.55;2.30;;;;;;;;;;5050566;28;20074;-79
2022/12/21 12:27:02;;;;;;;4.63;2.23;;;;;;;;;;5067644;28;20074;-79
2022/12/21 12:29:31;;;;;;;7.60;1.88;;;;;;;;;;5069875;28;20678;-78
2022/12/21 12:31:58;;;;;;;3.85;2.00;;;;;;;;;;5071778;28;20047;-79
2022/12/21 12:34:43;;;;;;;4.00;2.40;;;;;;;;;;5071106;28;20052;-78
2022/12/21 12:37:12;;;;;;;2.88;1.55;;;;;;;;;;5066274;28;20036;-78
2022/12/21 12:40:00;;;;;;;5.90;1.92;;;;;;;;;;5088210;28;20056;-79
2022/12/21 12:42:27;;;;;;;;;;;;;;;;;;5074993;28;20079;-77
2022/12/21 12:44:53;;;;;;;;;;;;;;;;;;5073680;28;19920;-78
2022/12/21 12:47:23;;;;;;;2.47;1.65;;;;;;;;;;5070895;28;19928;-78
2022/12/21 12:49:55;;;;;;;3.05;1.88;;;;;;;;;;5073735;28;20050;-79
2022/12/21 12:52:40;;;;;;;4.60;2.35;;;;;;;;;;5075514;28;20566;-78
2022/12/21 12:55:09;;;;;;;5.10;1.80;;;;;;;;;;5075132;28;20045;-78
2022/12/21 12:57:49;;;;;;;3.03;2.05;;;;;;;;;;5073534;28;20052;-79
2022/12/21 13:00:18;;;;;;;2.47;1.58;;;;;;;;;;5073046;28;20045;-78
2022/12/21 13:02:50;;;;;;;3.20;1.88;;;;;;;;;;5072865;28;20058;-79
2022/12/21 13:05:43;;;;;;;4.30;2.10;;;;;;;;;;5073113;28;20045;-80
2022/12/21 13:08:29;;;;;;;3.55;1.90;;;;;;;;;;5035227;28;20059;-79
2022/12/21 13:10:56;;;;;;;3.43;1.90;;;;;;;;;;5074840;28;20550;-79
2022/12/21 13:13:25;;;;;;;3.42;1.90;;;;;;;;;;5073547;28;20344;-79
2022/12/21 13:16:00;;;;;;;3.22;2.05;;;;;;;;;;5074460;28;20056;-79
2022/12/21 13:18:46;;;;;;;3.95;2.05;;;;;;;;;;5075460;28;20044;-79
2022/12/21 13:21:14;;;;;;;2.35;1.35;;;;;;;;;;5074605;28;20712;-77
2022/12/21 13:23:40;;;;;;;3.05;1.90;;;;;;;;;;5073573;28;20143;-79
2022/12/21 13:26:13;;;;;;;2.83;1.95;;;;;;;;;;5075021;28;20051;-79
2022/12/21 13:28:42;;;;;;;5.13;2.10;;;;;;;;;;5057345;28;20128;-80
2022/12/21 13:31:10;;;;;;;3.45;2.10;;;;;;;;;;5073960;28;20045;-80
2022/12/21 13:33:42;;;;;;;3.45;2.22;;;;;;;;;;5071023;28;20416;-78
2022/12/21 13:36:12;;;;;;;2.45;1.70;;;;;;;;;;5074077;28;20048;-80
2022/12/21 13:38:51;;;;;;;3.15;1.63;;;;;;;;;;5074482;28;20055;-80
2022/12/21 13:41:25;;;;;;;2.80;1.77;;;;;;;;;;5075188;28;20054;-78
2022/12/21 13:44:11;;;;;;;2.85;1.70;;;;;;;;;;5074120;28;20058;-78
2022/12/21 13:46:48;;;;;;;2.47;1.70;;;;;;;;;;5058736;28;20056;-79
2022/12/21 13:49:23;;;;;;;1.83;1.33;;;;;;;;;;5076411;28;20094;-78
2022/12/21 13:52:06;;;;;;;2.80;1.60;;;;;;;;;;5074117;28;20041;-79
2022/12/21 13:54:54;;;;;;;4.45;1.13;;;;;;;;;;5074721;28;20041;-79
2022/12/21 13:57:27;;;;;;;1.95;1.30;;;;;;;;;;5074142;28;20370;-79
2022/12/21 14:00:00;;;;;;;1.90;1.30;;;;;;;;;;5074807;28;20124;-80
2022/12/21 14:02:33;;;;;;;3.03;1.50;;;;;;;;;;5072994;28;20131;-77
2022/12/21 14:05:05;;;;;;;1.90;1.30;;;;;;;;;;5074506;28;20140;-79
2022/12/21 14:07:37;;;;;;;2.15;1.33;;;;;;;;;;5075422;28;20044;-79
2022/12/21 14:10:06;;;;;;;3.88;1.20;;;;;;;;;;5073608;28;20055;-78
2022/12/21 14:12:53;;;;;;;2.10;1.30;;;;;;;;;;5072734;28;20048;-78
2022/12/21 14:15:24;;;;;;;2.42;1.38;;;;;;;;;;5070552;28;20045;-78
2022/12/21 14:17:51;;;;;;;1.48;1.10;;;;;;;;;;5070175;28;20070;-77
2022/12/21 14:20:31;;;;;;;1.90;1.20;;;;;;;;;;5069490;28;20052;-79
2022/12/21 14:22:58;;;;;;;2.30;1.00;;;;;;;;;;5070059;28;20056;-78
2022/12/21 14:25:51;;;;;;;2.05;1.30;;;;;;;;;;5069353;28;20049;-79
2022/12/21 14:28:25;;;;;;;1.40;1.00;;;;;;;;;;5048041;28;20044;-78
2022/12/21 14:31:02;;;;;;;2.05;1.30;;;;;;;;;;5072723;28;20068;-78
2022/12/21 14:33:39;;;;;;;4.43;1.20;;;;;;;;;;5070549;28;20438;-78
2022/12/21 14:36:19;;;;;;;1.40;1.17;;;;;;;;;;5073445;28;20047;-79
2022/12/21 14:38:59;;;;;;;1.63;1.08;;;;;;;;;;5074804;28;20056;-80
2022/12/21 14:41:46;;;;;;;1.80;0.95;;;;;;;;;;5073874;28;20059;-78
2022/12/21 14:44:32;;;;;;;2.05;1.00;;;;;;;;;;5071486;28;20064;-76
2022/12/21 14:47:08;;;;;;;1.65;1.10;;;;;;;;;;5054742;28;20059;-78
2022/12/21 14:49:36;;;;;;;1.75;0.90;;;;;;;;;;5071788;28;20135;-79
2022/12/21 14:52:14;;;;;;;1.63;1.13;;;;;;;;;;5070584;28;20048;-79
2022/12/21 14:55:02;;;;;;;1.98;1.13;;;;;;;;;;5069979;28;20048;-80
2022/12/21 14:57:40;;;;;;;1.55;1.00;;;;;;;;;;5069316;28;20053;-78
2022/12/21 15:00:12;;;;;;;3.50;1.10;;;;;;;;;;5071039;28;20511;-78
2022/12/21 15:02:42;;;;;;;1.90;1.10;;;;;;;;;;5058615;28;20158;-80
2022/12/21 15:05:19;;;;;;;1.40;1.10;;;;;;;;;;5090899;28;20137;-80
2022/12/21 15:07:47;;;;;;;2.30;1.20;;;;;;;;;;5075858;28;20040;-80
2022/12/21 15:10:22;;;;;;;1.70;1.00;;;;;;;;;;5070061;28;20055;-79
2022/12/21 15:13:20;;;;;;;1.40;1.00;;;;;;;;;;5069718;28;20071;-81
2022/12/21 15:15:47;;;;;;;1.45;0.90;;;;;;;;;;5069391;28;20045;-79